Westerdam — PINX — position and weather

sailwx.info

Track history (hours):
 
Tides and Currents Weather Stations Pressure Air Temp Water Temp Dewpoint Dewpoint Depression Visibility Wind Speed Wind Dir Waves Ship Positions

Westerdam

Operator: Holland America Line

Last reported at 2017-Sep-23 03:00 UTC. Time now 2017-Sep-23 14:50 UTC.
Position N 35°54' W 005°36'.

Type: Passenger vessel. MMSI: 244128000.

Wind from 070 at 37 knots

Barometer 1016.3 mb
Air temperature 22.0 ° C
Visibility: greater than 10.8 NM
Dewpoint 12.8 ° C
Water temperature 23.0 ° C

Date/timePositionNaut miles runAvg speedWind from/ knotsBaromVisibWave heightAir tempDewpointWater temp
2017-Sep-23 03:00N 35°54' W 005°36'2412.2 070 / 371016.310.8 22.012.823.0
2017-Sep-23 01:00N 35°54' W 006°06'174 5.0 090 / 351015.610.8 22.012.823.0
2017-Sep-21 14:17N 36°23' W 002°33'516.9
2017-Sep-21 14:00N 36°24' W 002°27'3014.7
2017-Sep-21 12:00N 36°36' W 001°54'6117.0 060 / 151016.710.8 26.620.223.0
2017-Sep-21 08:24N 37°18' W 000°58'716.4
2017-Sep-21 08:00N 37°22' W 000°52'816.4
2017-Sep-21 07:30N 37°28' W 000°44'816.0
2017-Sep-21 07:00N 37°33' W 000°37'815.7
2017-Sep-21 06:30N 37°39' W 000°30'816.4
2017-Sep-21 06:00N 37°46' W 000°25'161043.1
2017-Sep-21 06:00N 37°30' W 000°30'2546.2 090 / 101017.510.8 22.7 23.0
2017-Sep-21 05:27N 37°53' W 000°18'716.5
2017-Sep-21 05:01N 37°59' W 000°13'1716.5
2017-Sep-21 04:00N 38°14' W 000°02'816.7
2017-Sep-21 03:30N 38°21' E 000°04'1912.6
2017-Sep-21 02:00N 38°36' E 000°18'1923.4 190 / 121018.510.8 22.2 9.423.4
2017-Sep-21 01:10N 38°52' E 000°31'1116.0
2017-Sep-21 00:27N 39°03' E 000°38'715.9
2017-Sep-21 00:00N 39°09' E 000°42'3555.7
2017-Sep-21 00:00N 39°06' E 000°42'1121.7 160 / 211018.510.8 22.2 9.423.4
2017-Sep-20 23:30N 39°16' E 000°46'4816.2
2017-Sep-20 20:33N 39°58' E 001°16'116.7
2017-Sep-20 20:30N 39°59' E 001°17'816.6
2017-Sep-20 20:00N 40°06' E 001°22'816.5
2017-Sep-20 19:30N 40°14' E 001°27'816.3
2017-Sep-20 19:00N 40°21' E 001°31'816.0
2017-Sep-20 18:31N 40°28' E 001°36'815.8
2017-Sep-20 18:00N 40°35' E 001°41'816.0
2017-Sep-20 17:30N 40°42' E 001°46'1216.3
2017-Sep-20 16:45N 40°53' E 001°53'415.2
2017-Sep-20 16:29N 40°57' E 001°56'714.7
2017-Sep-20 16:00N 41°03' E 002°00'714.9
2017-Sep-20 15:30N 41°09' E 002°06'3 6.0
2017-Sep-20 15:00N 41°12' E 002°06'656.1 160 / 111019.510.8 22.2 9.4
2017-Sep-20 14:53N 41°17' E 002°11'109 2.5
2017-Sep-18 19:00N 42°42' E 003°42'2516.0 320 / 241018.8 2.2 16.310.415.3
2017-Sep-18 17:27N 43°07' E 003°44'613.9
2017-Sep-18 17:00N 43°12' E 003°47'13785.7
2017-Sep-18 17:00N 43°00' E 003°42'2040.5 320 / 241017.2 2.2 16.310.415.3
2017-Sep-18 16:30N 43°19' E 003°47'510.5
2017-Sep-18 16:01N 43°24' E 003°44'1 1.3
2017-Sep-18 15:28N 43°24' E 003°43'0 0.0
2017-Sep-18 14:55N 43°24' E 003°43'0 0.0
2017-Sep-18 14:13N 43°24' E 003°43'0 0.0
2017-Sep-18 13:58N 43°24' E 003°43'0 0.0
2017-Sep-18 13:19N 43°24' E 003°43'0 0.0
2017-Sep-18 12:58N 43°24' E 003°43'0 0.0
2017-Sep-18 12:25N 43°24' E 003°43'0 0.0
2017-Sep-18 11:58N 43°24' E 003°43'0 0.0
2017-Sep-18 10:22N 43°24' E 003°43'0 0.0
2017-Sep-18 09:55N 43°24' E 003°43'0 0.0
2017-Sep-18 09:28N 43°24' E 003°43'0 0.0
2017-Sep-18 08:58N 43°24' E 003°43'0 0.0
2017-Sep-18 08:28N 43°24' E 003°43'0 0.0
2017-Sep-18 07:28N 43°24' E 003°43'0 0.0
2017-Sep-18 06:58N 43°24' E 003°43'0 0.0
2017-Sep-18 06:24N 43°24' E 003°43'0 0.0
2017-Sep-18 05:55N 43°24' E 003°43'1 1.9
2017-Sep-18 05:16N 43°24' E 003°45'2 7.4
2017-Sep-18 05:00N 43°23' E 003°47'4 7.8
2017-Sep-18 04:30N 43°20' E 003°50'4 8.0
2017-Sep-18 04:00N 43°16' E 003°53'4 8.4
2017-Sep-18 03:30N 43°13' E 003°56'612.0
2017-Sep-18 03:00N 43°13' E 004°05'713.6
2017-Sep-18 02:30N 43°11' E 004°14'713.7
2017-Sep-18 02:00N 43°09' E 004°23'611.0
2017-Sep-18 01:30N 43°09' E 004°30'510.1
2017-Sep-18 01:00N 43°08' E 004°37'510.3
2017-Sep-18 00:30N 43°07' E 004°44'510.2
2017-Sep-18 00:01N 43°06' E 004°51'510.1
2017-Sep-17 23:30N 43°05' E 004°58'510.1
2017-Sep-17 23:00N 43°07' E 005°04'5 9.6
2017-Sep-17 22:30N 43°10' E 005°09'510.7
2017-Sep-17 22:01N 43°15' E 005°09'510.0
2017-Sep-17 21:31N 43°19' E 005°14'4 8.5
2017-Sep-17 21:00N 43°21' E 005°19'6421.5
2017-Sep-17 21:00N 43°18' E 005°12'613.1 230 / 61019.110.8 16.012.223.0
2017-Sep-17 20:30N 43°21' E 005°20'0 0.0
2017-Sep-17 19:54N 43°21' E 005°20'0 0.0
2017-Sep-17 19:30N 43°21' E 005°20'0 0.0
2017-Sep-17 18:57N 43°21' E 005°20'0 0.0
2017-Sep-17 18:18N 43°21' E 005°20'0 0.0
2017-Sep-17 17:57N 43°21' E 005°20'0 0.0
2017-Sep-17 17:30N 43°21' E 005°20'0 0.0
2017-Sep-17 16:57N 43°21' E 005°20'0 0.0
2017-Sep-17 16:30N 43°21' E 005°20'0 0.0
2017-Sep-17 15:57N 43°21' E 005°20'0 0.0
2017-Sep-17 15:30N 43°21' E 005°20'0 0.0
2017-Sep-17 15:00N 43°21' E 005°20'0 0.0
2017-Sep-17 14:30N 43°21' E 005°20'0 0.0
2017-Sep-17 14:00N 43°21' E 005°20'0 0.0
2017-Sep-17 13:30N 43°21' E 005°20'0 0.0
2017-Sep-17 13:00N 43°21' E 005°20'0 0.0
2017-Sep-17 12:27N 43°21' E 005°20'0 0.0
2017-Sep-17 12:00N 43°21' E 005°20'0 0.0
2017-Sep-17 11:21N 43°21' E 005°20'0 0.0
2017-Sep-17 11:00N 43°21' E 005°20'0 0.0
2017-Sep-17 10:24N 43°21' E 005°20'0 0.0
2017-Sep-17 10:00N 43°21' E 005°20'0 0.0
2017-Sep-17 09:30N 43°21' E 005°20'0 0.0
2017-Sep-17 09:00N 43°21' E 005°20'0 0.0
2017-Sep-17 08:30N 43°21' E 005°20'0 0.0
2017-Sep-17 08:00N 43°21' E 005°20'0 0.0
2017-Sep-17 07:30N 43°21' E 005°20'0 0.0
2017-Sep-17 07:00N 43°21' E 005°20'0 0.0
2017-Sep-17 06:30N 43°21' E 005°20'0 0.0
2017-Sep-17 06:00N 43°21' E 005°20'0 0.1
2017-Sep-17 05:30N 43°21' E 005°20'1 1.8
2017-Sep-17 05:00N 43°21' E 005°19'5 9.9
2017-Sep-17 04:30N 43°18' E 005°13'815.7
2017-Sep-17 04:00N 43°11' E 005°09'1018.3
2017-Sep-17 03:29N 43°03' E 005°02'919.0
2017-Sep-17 03:00N 42°56' E 004°54'1019.1
2017-Sep-17 02:30N 42°48' E 004°46'13918.6
2017-Sep-16 19:03N 40°60' E 002°50'120.5
2017-Sep-16 19:00N 40°59' E 002°50'2386.1
2017-Sep-16 19:00N 41°00' E 002°48'1021.3 220 / 131015.110.8 19.611.623.0
2017-Sep-16 18:30N 40°51' E 002°41'1020.8
2017-Sep-16 18:00N 40°43' E 002°33'1121.2
2017-Sep-16 17:30N 40°35' E 002°24'1020.9
2017-Sep-16 17:00N 40°27' E 002°15'1020.6
2017-Sep-16 16:30N 40°19' E 002°06'1020.3
2017-Sep-16 16:00N 40°11' E 001°58'1019.8
2017-Sep-16 15:30N 40°03' E 001°50'1019.3
2017-Sep-16 15:00N 39°56' E 001°42'917.7
2017-Sep-16 14:30N 39°49' E 001°35'1219.1
2017-Sep-16 13:53N 39°39' E 001°25'719.4
2017-Sep-16 13:30N 39°34' E 001°19'1019.3
2017-Sep-16 12:59N 39°26' E 001°11'11719.7
2017-Sep-16 07:04N 37°51' W 000°16'720.2
2017-Sep-16 06:44N 37°45' W 000°20'617.3
2017-Sep-16 06:24N 37°40' W 000°25'717.2
2017-Sep-16 06:00N 37°35' W 000°29'1016.8
2017-Sep-16 05:23N 37°27' W 000°39'616.9
2017-Sep-16 05:00N 37°23' W 000°45'23417.1
2017-Sep-15 15:19N 35°56' W 005°15'3 9.5
2017-Sep-15 15:01N 35°54' W 005°19'1 1.5
2017-Sep-15 14:30N 35°54' W 005°19'0 0.0
2017-Sep-15 14:00N 35°54' W 005°19'0 0.0
2017-Sep-15 13:30N 35°54' W 005°19'0 0.0
2017-Sep-15 13:00N 35°54' W 005°19'0 0.0
2017-Sep-15 12:27N 35°54' W 005°19'0 0.0
2017-Sep-15 12:00N 35°54' W 005°19'0 0.0
2017-Sep-15 11:30N 35°54' W 005°19'0 0.0
2017-Sep-15 11:00N 35°54' W 005°19'0 0.0
2017-Sep-15 10:30N 35°54' W 005°19'0 0.0
2017-Sep-15 10:00N 35°54' W 005°19'0 0.0
2017-Sep-15 09:30N 35°54' W 005°19'0 0.0
2017-Sep-15 09:00N 35°54' W 005°19'0 0.0
2017-Sep-15 08:30N 35°54' W 005°19'0 0.0
2017-Sep-15 08:00N 35°54' W 005°19'0 0.0
2017-Sep-15 07:30N 35°54' W 005°19'0 0.0
2017-Sep-15 07:00N 35°54' W 005°19'0 0.0
2017-Sep-15 06:30N 35°54' W 005°19'0 0.0
2017-Sep-15 06:00N 35°54' W 005°19'0 0.0
2017-Sep-15 05:30N 35°54' W 005°19'0 0.0
2017-Sep-15 05:00N 35°54' W 005°19'0 0.2
2017-Sep-15 04:31N 35°54' W 005°19'4 7.2
2017-Sep-15 04:00N 35°57' W 005°17'13012.9
2017-Sep-14 18:00N 36°30' W 002°42'29 1.9 220 / 131014.110.8 21.920.520.5
2017-Sep-14 02:35N 36°29' W 002°06'218.6
2017-Sep-14 02:28N 36°30' W 002°04'918.6
2017-Sep-14 02:00N 36°34' W 001°54'1019.1
2017-Sep-14 01:30N 36°39' W 001°44'1018.9
2017-Sep-14 00:57N 36°45' W 001°33'1216.7
2017-Sep-14 00:13N 36°51' W 001°19'416.7
2017-Sep-13 23:58N 36°53' W 001°15'816.6
2017-Sep-13 23:30N 36°57' W 001°07'816.5
2017-Sep-13 23:00N 37°01' W 000°58'816.5
2017-Sep-13 22:30N 37°05' W 000°49'816.6
2017-Sep-13 22:00N 37°09' W 000°40'816.7
2017-Sep-13 21:30N 37°14' W 000°31'816.6
2017-Sep-13 21:01N 37°18' W 000°22'816.8
2017-Sep-13 20:30N 37°22' W 000°13'816.7
2017-Sep-13 20:00N 37°26' W 000°04'816.2
2017-Sep-13 19:30N 37°30' E 000°05'816.1
2017-Sep-13 19:00N 37°34' E 000°14'816.1
2017-Sep-13 18:30N 37°38' E 000°23'3 5.0
2017-Sep-13 18:00N 37°36' E 000°24'1632.9 110 / 181020.310.8 25.021.523.0
2017-Sep-13 17:30N 37°46' E 000°40'715.4
2017-Sep-13 17:00N 37°50' E 000°48'815.6
2017-Sep-13 16:29N 37°55' E 000°57'3514.2
2017-Sep-13 14:00N 38°12' E 001°36'3619.1 120 / 141023.010.8 24.014.723.0
2017-Sep-13 12:06N 38°31' E 002°15'218.8
2017-Sep-13 12:00N 38°32' E 002°18'917.8
2017-Sep-13 11:30N 38°36' E 002°27'1019.3
2017-Sep-13 11:00N 38°41' E 002°38'1019.3
2017-Sep-13 10:30N 38°46' E 002°49'1019.4
2017-Sep-13 10:01N 38°51' E 002°59'1019.2
2017-Sep-13 09:30N 38°56' E 003°10'1019.1
2017-Sep-13 09:00N 39°02' E 003°20'1019.3
2017-Sep-13 08:30N 39°07' E 003°30'1019.2
2017-Sep-13 08:00N 39°13' E 003°40'7571.5
2017-Sep-13 08:00N 39°06' E 003°36'1732.7 160 / 71024.110.8 24.014.723.0
2017-Sep-13 07:28N 39°19' E 003°50'2416.4
2017-Sep-13 06:00N 39°30' E 004°18'4020.1 180 / 81023.010.8 22.012.823.0
2017-Sep-13 04:00N 39°54' E 005°00'   360 / 101022.010.8 22.012.823.0
Track history (hours):
 
Tides and Currents Weather Stations Pressure Air Temp Water Temp Dewpoint Dewpoint Depression Visibility Wind Speed Wind Dir Waves Ship Positions

Westerdam

Operator: Holland America Line

Last reported at 2017-Sep-23 03:00 UTC. Time now 2017-Sep-23 14:50 UTC.
Position N 35°54' W 005°36'.

Type: Passenger vessel. MMSI: 244128000.

Wind from 070 at 37 knots

Barometer 1016.3 mb
Air temperature 22.0 ° C
Visibility: greater than 10.8 NM
Dewpoint 12.8 ° C
Water temperature 23.0 ° C

Date/timePositionNaut miles runAvg speedWind from/ knotsBaromVisibWave heightAir tempDewpointWater temp
2017-Sep-23 03:00N 35°54' W 005°36'2412.2 070 / 371016.310.8 22.012.823.0
2017-Sep-23 01:00N 35°54' W 006°06'174 5.0 090 / 351015.610.8 22.012.823.0
2017-Sep-21 14:17N 36°23' W 002°33'516.9
2017-Sep-21 14:00N 36°24' W 002°27'3014.7
2017-Sep-21 12:00N 36°36' W 001°54'6117.0 060 / 151016.710.8 26.620.223.0
2017-Sep-21 08:24N 37°18' W 000°58'716.4
2017-Sep-21 08:00N 37°22' W 000°52'816.4
2017-Sep-21 07:30N 37°28' W 000°44'816.0
2017-Sep-21 07:00N 37°33' W 000°37'815.7
2017-Sep-21 06:30N 37°39' W 000°30'816.4
2017-Sep-21 06:00N 37°46' W 000°25'161043.1
2017-Sep-21 06:00N 37°30' W 000°30'2546.2 090 / 101017.510.8 22.7 23.0
2017-Sep-21 05:27N 37°53' W 000°18'716.5
2017-Sep-21 05:01N 37°59' W 000°13'1716.5
2017-Sep-21 04:00N 38°14' W 000°02'816.7
2017-Sep-21 03:30N 38°21' E 000°04'1912.6
2017-Sep-21 02:00N 38°36' E 000°18'1923.4 190 / 121018.510.8 22.2 9.423.4
2017-Sep-21 01:10N 38°52' E 000°31'1116.0
2017-Sep-21 00:27N 39°03' E 000°38'715.9
2017-Sep-21 00:00N 39°09' E 000°42'3555.7
2017-Sep-21 00:00N 39°06' E 000°42'1121.7 160 / 211018.510.8 22.2 9.423.4
2017-Sep-20 23:30N 39°16' E 000°46'4816.2
2017-Sep-20 20:33N 39°58' E 001°16'116.7
2017-Sep-20 20:30N 39°59' E 001°17'816.6
2017-Sep-20 20:00N 40°06' E 001°22'816.5
2017-Sep-20 19:30N 40°14' E 001°27'816.3
2017-Sep-20 19:00N 40°21' E 001°31'816.0
2017-Sep-20 18:31N 40°28' E 001°36'815.8
2017-Sep-20 18:00N 40°35' E 001°41'816.0
2017-Sep-20 17:30N 40°42' E 001°46'1216.3
2017-Sep-20 16:45N 40°53' E 001°53'415.2
2017-Sep-20 16:29N 40°57' E 001°56'714.7
2017-Sep-20 16:00N 41°03' E 002°00'714.9
2017-Sep-20 15:30N 41°09' E 002°06'3 6.0
2017-Sep-20 15:00N 41°12' E 002°06'656.1 160 / 111019.510.8 22.2 9.4
2017-Sep-20 14:53N 41°17' E 002°11'109 2.5
2017-Sep-18 19:00N 42°42' E 003°42'2516.0 320 / 241018.8 2.2 16.310.415.3
2017-Sep-18 17:27N 43°07' E 003°44'613.9
2017-Sep-18 17:00N 43°12' E 003°47'13785.7
2017-Sep-18 17:00N 43°00' E 003°42'2040.5 320 / 241017.2 2.2 16.310.415.3
2017-Sep-18 16:30N 43°19' E 003°47'510.5
2017-Sep-18 16:01N 43°24' E 003°44'1 1.3
2017-Sep-18 15:28N 43°24' E 003°43'0 0.0
2017-Sep-18 14:55N 43°24' E 003°43'0 0.0
2017-Sep-18 14:13N 43°24' E 003°43'0 0.0
2017-Sep-18 13:58N 43°24' E 003°43'0 0.0
2017-Sep-18 13:19N 43°24' E 003°43'0 0.0
2017-Sep-18 12:58N 43°24' E 003°43'0 0.0
2017-Sep-18 12:25N 43°24' E 003°43'0 0.0
2017-Sep-18 11:58N 43°24' E 003°43'0 0.0
2017-Sep-18 10:22N 43°24' E 003°43'0 0.0
2017-Sep-18 09:55N 43°24' E 003°43'0 0.0
2017-Sep-18 09:28N 43°24' E 003°43'0 0.0
2017-Sep-18 08:58N 43°24' E 003°43'0 0.0
2017-Sep-18 08:28N 43°24' E 003°43'0 0.0
2017-Sep-18 07:28N 43°24' E 003°43'0 0.0
2017-Sep-18 06:58N 43°24' E 003°43'0 0.0
2017-Sep-18 06:24N 43°24' E 003°43'0 0.0
2017-Sep-18 05:55N 43°24' E 003°43'1 1.9
2017-Sep-18 05:16N 43°24' E 003°45'2 7.4
2017-Sep-18 05:00N 43°23' E 003°47'4 7.8
2017-Sep-18 04:30N 43°20' E 003°50'4 8.0
2017-Sep-18 04:00N 43°16' E 003°53'4 8.4
2017-Sep-18 03:30N 43°13' E 003°56'612.0
2017-Sep-18 03:00N 43°13' E 004°05'713.6
2017-Sep-18 02:30N 43°11' E 004°14'713.7
2017-Sep-18 02:00N 43°09' E 004°23'611.0
2017-Sep-18 01:30N 43°09' E 004°30'510.1
2017-Sep-18 01:00N 43°08' E 004°37'510.3
2017-Sep-18 00:30N 43°07' E 004°44'510.2
2017-Sep-18 00:01N 43°06' E 004°51'510.1
2017-Sep-17 23:30N 43°05' E 004°58'510.1
2017-Sep-17 23:00N 43°07' E 005°04'5 9.6
2017-Sep-17 22:30N 43°10' E 005°09'510.7
2017-Sep-17 22:01N 43°15' E 005°09'510.0
2017-Sep-17 21:31N 43°19' E 005°14'4 8.5
2017-Sep-17 21:00N 43°21' E 005°19'6421.5
2017-Sep-17 21:00N 43°18' E 005°12'613.1 230 / 61019.110.8 16.012.223.0
2017-Sep-17 20:30N 43°21' E 005°20'0 0.0
2017-Sep-17 19:54N 43°21' E 005°20'0 0.0
2017-Sep-17 19:30N 43°21' E 005°20'0 0.0
2017-Sep-17 18:57N 43°21' E 005°20'0 0.0
2017-Sep-17 18:18N 43°21' E 005°20'0 0.0
2017-Sep-17 17:57N 43°21' E 005°20'0 0.0
2017-Sep-17 17:30N 43°21' E 005°20'0 0.0
2017-Sep-17 16:57N 43°21' E 005°20'0 0.0
2017-Sep-17 16:30N 43°21' E 005°20'0 0.0
2017-Sep-17 15:57N 43°21' E 005°20'0 0.0
2017-Sep-17 15:30N 43°21' E 005°20'0 0.0
2017-Sep-17 15:00N 43°21' E 005°20'0 0.0
2017-Sep-17 14:30N 43°21' E 005°20'0 0.0
2017-Sep-17 14:00N 43°21' E 005°20'0 0.0
2017-Sep-17 13:30N 43°21' E 005°20'0 0.0
2017-Sep-17 13:00N 43°21' E 005°20'0 0.0
2017-Sep-17 12:27N 43°21' E 005°20'0 0.0
2017-Sep-17 12:00N 43°21' E 005°20'0 0.0
2017-Sep-17 11:21N 43°21' E 005°20'0 0.0
2017-Sep-17 11:00N 43°21' E 005°20'0 0.0
2017-Sep-17 10:24N 43°21' E 005°20'0 0.0
2017-Sep-17 10:00N 43°21' E 005°20'0 0.0
2017-Sep-17 09:30N 43°21' E 005°20'0 0.0
2017-Sep-17 09:00N 43°21' E 005°20'0 0.0
2017-Sep-17 08:30N 43°21' E 005°20'0 0.0
2017-Sep-17 08:00N 43°21' E 005°20'0 0.0
2017-Sep-17 07:30N 43°21' E 005°20'0 0.0
2017-Sep-17 07:00N 43°21' E 005°20'0 0.0
2017-Sep-17 06:30N 43°21' E 005°20'0 0.0
2017-Sep-17 06:00N 43°21' E 005°20'0 0.1
2017-Sep-17 05:30N 43°21' E 005°20'1 1.8
2017-Sep-17 05:00N 43°21' E 005°19'5 9.9
2017-Sep-17 04:30N 43°18' E 005°13'815.7
2017-Sep-17 04:00N 43°11' E 005°09'1018.3
2017-Sep-17 03:29N 43°03' E 005°02'919.0
2017-Sep-17 03:00N 42°56' E 004°54'1019.1
2017-Sep-17 02:30N 42°48' E 004°46'13918.6
2017-Sep-16 19:03N 40°60' E 002°50'120.5
2017-Sep-16 19:00N 40°59' E 002°50'2386.1
2017-Sep-16 19:00N 41°00' E 002°48'1021.3 220 / 131015.110.8 19.611.623.0
2017-Sep-16 18:30N 40°51' E 002°41'1020.8
2017-Sep-16 18:00N 40°43' E 002°33'1121.2
2017-Sep-16 17:30N 40°35' E 002°24'1020.9
2017-Sep-16 17:00N 40°27' E 002°15'1020.6
2017-Sep-16 16:30N 40°19' E 002°06'1020.3
2017-Sep-16 16:00N 40°11' E 001°58'1019.8
2017-Sep-16 15:30N 40°03' E 001°50'1019.3
2017-Sep-16 15:00N 39°56' E 001°42'917.7
2017-Sep-16 14:30N 39°49' E 001°35'1219.1
2017-Sep-16 13:53N 39°39' E 001°25'719.4
2017-Sep-16 13:30N 39°34' E 001°19'1019.3
2017-Sep-16 12:59N 39°26' E 001°11'11719.7
2017-Sep-16 07:04N 37°51' W 000°16'720.2
2017-Sep-16 06:44N 37°45' W 000°20'617.3
2017-Sep-16 06:24N 37°40' W 000°25'717.2
2017-Sep-16 06:00N 37°35' W 000°29'1016.8
2017-Sep-16 05:23N 37°27' W 000°39'616.9
2017-Sep-16 05:00N 37°23' W 000°45'23417.1
2017-Sep-15 15:19N 35°56' W 005°15'3 9.5
2017-Sep-15 15:01N 35°54' W 005°19'1 1.5
2017-Sep-15 14:30N 35°54' W 005°19'0 0.0
2017-Sep-15 14:00N 35°54' W 005°19'0 0.0
2017-Sep-15 13:30N 35°54' W 005°19'0 0.0
2017-Sep-15 13:00N 35°54' W 005°19'0 0.0
2017-Sep-15 12:27N 35°54' W 005°19'0 0.0
2017-Sep-15 12:00N 35°54' W 005°19'0 0.0
2017-Sep-15 11:30N 35°54' W 005°19'0 0.0
2017-Sep-15 11:00N 35°54' W 005°19'0 0.0
2017-Sep-15 10:30N 35°54' W 005°19'0 0.0
2017-Sep-15 10:00N 35°54' W 005°19'0 0.0
2017-Sep-15 09:30N 35°54' W 005°19'0 0.0
2017-Sep-15 09:00N 35°54' W 005°19'0 0.0
2017-Sep-15 08:30N 35°54' W 005°19'0 0.0
2017-Sep-15 08:00N 35°54' W 005°19'0 0.0
2017-Sep-15 07:30N 35°54' W 005°19'0 0.0
2017-Sep-15 07:00N 35°54' W 005°19'0 0.0
2017-Sep-15 06:30N 35°54' W 005°19'0 0.0
2017-Sep-15 06:00N 35°54' W 005°19'0 0.0
2017-Sep-15 05:30N 35°54' W 005°19'0 0.0
2017-Sep-15 05:00N 35°54' W 005°19'0 0.2
2017-Sep-15 04:31N 35°54' W 005°19'4 7.2
2017-Sep-15 04:00N 35°57' W 005°17'13012.9
2017-Sep-14 18:00N 36°30' W 002°42'29 1.9 220 / 131014.110.8 21.920.520.5
2017-Sep-14 02:35N 36°29' W 002°06'218.6
2017-Sep-14 02:28N 36°30' W 002°04'918.6
2017-Sep-14 02:00N 36°34' W 001°54'1019.1
2017-Sep-14 01:30N 36°39' W 001°44'1018.9
2017-Sep-14 00:57N 36°45' W 001°33'1216.7
2017-Sep-14 00:13N 36°51' W 001°19'416.7
2017-Sep-13 23:58N 36°53' W 001°15'816.6
2017-Sep-13 23:30N 36°57' W 001°07'816.5
2017-Sep-13 23:00N 37°01' W 000°58'816.5
2017-Sep-13 22:30N 37°05' W 000°49'816.6
2017-Sep-13 22:00N 37°09' W 000°40'816.7
2017-Sep-13 21:30N 37°14' W 000°31'816.6
2017-Sep-13 21:01N 37°18' W 000°22'816.8
2017-Sep-13 20:30N 37°22' W 000°13'816.7
2017-Sep-13 20:00N 37°26' W 000°04'816.2
2017-Sep-13 19:30N 37°30' E 000°05'816.1
2017-Sep-13 19:00N 37°34' E 000°14'816.1
2017-Sep-13 18:30N 37°38' E 000°23'3 5.0
2017-Sep-13 18:00N 37°36' E 000°24'1632.9 110 / 181020.310.8 25.021.523.0
2017-Sep-13 17:30N 37°46' E 000°40'715.4
2017-Sep-13 17:00N 37°50' E 000°48'815.6
2017-Sep-13 16:29N 37°55' E 000°57'3514.2
2017-Sep-13 14:00N 38°12' E 001°36'3619.1 120 / 141023.010.8 24.014.723.0
2017-Sep-13 12:06N 38°31' E 002°15'218.8
2017-Sep-13 12:00N 38°32' E 002°18'917.8
2017-Sep-13 11:30N 38°36' E 002°27'1019.3
2017-Sep-13 11:00N 38°41' E 002°38'1019.3
2017-Sep-13 10:30N 38°46' E 002°49'1019.4
2017-Sep-13 10:01N 38°51' E 002°59'1019.2
2017-Sep-13 09:30N 38°56' E 003°10'1019.1
2017-Sep-13 09:00N 39°02' E 003°20'1019.3
2017-Sep-13 08:30N 39°07' E 003°30'1019.2
2017-Sep-13 08:00N 39°13' E 003°40'7571.5
2017-Sep-13 08:00N 39°06' E 003°36'1732.7 160 / 71024.110.8 24.014.723.0
2017-Sep-13 07:28N 39°19' E 003°50'2416.4
2017-Sep-13 06:00N 39°30' E 004°18'4020.1 180 / 81023.010.8 22.012.823.0
2017-Sep-13 04:00N 39°54' E 005°00'   360 / 101022.010.8 22.012.823.0

Dump ship's entire track history